createdAt,value
2023-01-12T00:01:40.925Z,18.73
2023-01-12T00:04:24.124Z,17.87
2023-01-12T00:07:08.577Z,18.10
2023-01-12T00:09:51.632Z,19.33
2023-01-12T00:12:34.853Z,19.30
2023-01-12T00:15:38.118Z,17.17
2023-01-12T00:18:22.885Z,17.87
2023-01-12T00:21:06.190Z,19.57
2023-01-12T00:23:49.528Z,15.13
2023-01-12T00:26:32.853Z,20.13
2023-01-12T00:29:16.412Z,18.03
2023-01-12T00:32:00.922Z,16.23
2023-01-12T00:34:45.901Z,17.37
2023-01-12T00:37:29.166Z,17.70
2023-01-12T00:40:13.464Z,15.90
2023-01-12T00:43:14.151Z,15.50
2023-01-12T00:45:57.604Z,17.80
2023-01-12T00:48:40.958Z,14.80
2023-01-12T00:51:25.717Z,16.00
2023-01-12T00:54:09.178Z,15.40
2023-01-12T00:56:52.296Z,15.47
2023-01-12T00:59:35.440Z,18.80
2023-01-12T01:02:18.753Z,16.67
2023-01-12T01:05:01.991Z,16.20
2023-01-12T01:07:47.517Z,16.30
2023-01-12T01:10:30.668Z,16.20
2023-01-12T01:13:13.799Z,16.50
2023-01-12T01:15:56.894Z,17.37
2023-01-12T01:18:40.388Z,15.33
2023-01-12T01:21:24.319Z,19.07
2023-01-12T01:24:13.311Z,16.50
2023-01-12T01:26:57.803Z,16.30
2023-01-12T01:29:41.126Z,17.57
2023-01-12T01:32:24.356Z,16.23
2023-01-12T01:35:07.746Z,18.00
2023-01-12T01:37:50.873Z,16.13
2023-01-12T01:40:35.409Z,17.37
2023-01-12T01:43:20.906Z,15.23
2023-01-12T01:46:08.961Z,17.13
2023-01-12T01:48:52.627Z,17.23
2023-01-12T01:51:36.027Z,14.73
2023-01-12T01:54:20.724Z,18.40
2023-01-12T01:57:07.076Z,17.40
2023-01-12T01:59:56.227Z,17.03
2023-01-12T02:02:40.714Z,17.37
2023-01-12T02:05:27.622Z,15.83
2023-01-12T02:08:17.613Z,16.40
2023-01-12T02:11:02.686Z,18.07
2023-01-12T02:14:04.545Z,19.20
2023-01-12T02:17:00.086Z,16.57
2023-01-12T02:20:22.051Z,15.70
2023-01-12T02:23:33.132Z,14.87
2023-01-12T02:26:52.228Z,17.23
2023-01-12T02:30:14.152Z,18.13
2023-01-12T02:33:17.071Z,17.93
2023-01-12T02:36:07.795Z,16.43
2023-01-12T02:38:58.344Z,15.60
2023-01-12T02:42:07.038Z,17.00
2023-01-12T02:44:57.507Z,18.90
2023-01-12T02:47:47.679Z,15.67
2023-01-12T02:50:37.944Z,17.03
2023-01-12T02:53:25.964Z,18.97
2023-01-12T02:56:12.831Z,15.47
2023-01-12T02:59:00.498Z,16.07
2023-01-12T03:01:48.574Z,17.77
2023-01-12T03:04:34.163Z,18.00
2023-01-12T03:07:48.440Z,23.80
2023-01-12T03:10:55.432Z,18.37
2023-01-12T03:13:44.044Z,20.00
2023-01-12T03:16:30.892Z,17.57
2023-01-12T03:19:19.562Z,18.33
2023-01-12T03:22:06.102Z,16.07
2023-01-12T03:24:56.117Z,16.47
2023-01-12T03:27:42.425Z,20.33
2023-01-12T03:30:31.417Z,16.87
2023-01-12T03:33:15.063Z,18.27
2023-01-12T03:36:07.254Z,21.77
2023-01-12T03:38:59.844Z,17.90
2023-01-12T03:41:56.330Z,19.40
2023-01-12T03:44:44.581Z,20.00
2023-01-12T03:47:32.082Z,15.87
2023-01-12T03:50:19.586Z,20.20
2023-01-12T03:53:03.883Z,17.47
2023-01-12T03:55:49.609Z,21.00
2023-01-12T03:58:35.885Z,18.00
2023-01-12T04:01:19.618Z,19.47
2023-01-12T04:04:02.966Z,16.23
2023-01-12T04:06:46.250Z,15.77
2023-01-12T04:09:29.424Z,17.03
2023-01-12T04:12:12.612Z,17.27
2023-01-12T04:14:57.138Z,18.00
2023-01-12T04:17:40.381Z,15.60
2023-01-12T04:20:23.776Z,16.27
2023-01-12T04:23:06.980Z,18.53
2023-01-12T04:25:49.991Z,19.60
2023-01-12T04:28:33.113Z,15.07
2023-01-12T04:31:20.359Z,16.70
2023-01-12T04:34:03.649Z,19.27
2023-01-12T04:36:46.823Z,16.93
2023-01-12T04:39:30.018Z,16.97
2023-01-12T04:42:26.904Z,22.40
2023-01-12T04:45:11.022Z,17.50
2023-01-12T04:47:55.505Z,16.10
2023-01-12T04:50:42.304Z,15.80
2023-01-12T04:53:26.337Z,14.67
2023-01-12T04:56:10.748Z,16.50
2023-01-12T04:58:59.631Z,20.37
2023-01-12T05:01:45.117Z,16.20
2023-01-12T05:04:29.867Z,19.77
2023-01-12T05:07:15.641Z,15.23
2023-01-12T05:10:15.909Z,18.80
2023-01-12T05:12:59.158Z,21.53
2023-01-12T05:15:42.281Z,16.60
2023-01-12T05:18:25.872Z,20.53
2023-01-12T05:21:13.471Z,18.00
2023-01-12T05:23:56.612Z,19.60
2023-01-12T05:26:41.802Z,17.77
2023-01-12T05:29:24.989Z,22.87
2023-01-12T05:32:08.375Z,18.20
2023-01-12T05:34:51.733Z,17.60
2023-01-12T05:37:36.599Z,19.47
2023-01-12T05:40:19.755Z,19.23
2023-01-12T05:43:20.382Z,18.67
2023-01-12T05:46:04.808Z,22.30
2023-01-12T05:48:48.309Z,18.27
2023-01-12T05:51:32.804Z,22.77
2023-01-12T05:54:17.439Z,19.53
2023-01-12T05:57:00.580Z,15.83
2023-01-12T05:59:45.028Z,18.50
2023-01-12T06:02:28.863Z,17.87
2023-01-12T06:05:12.061Z,18.37
2023-01-12T06:07:55.122Z,18.53
2023-01-12T06:10:40.831Z,19.37
2023-01-12T06:13:41.639Z,19.63
2023-01-12T06:16:25.140Z,20.17
2023-01-12T06:19:08.630Z,20.57
2023-01-12T06:21:52.717Z,19.43
2023-01-12T06:24:35.744Z,19.30
2023-01-12T06:27:20.203Z,22.90
2023-01-12T06:30:03.328Z,19.43
2023-01-12T06:32:46.415Z,18.27
2023-01-12T06:35:29.519Z,18.53
2023-01-12T06:38:15.201Z,26.00
2023-01-12T06:41:03.508Z,17.47
2023-01-12T06:43:48.324Z,20.73
2023-01-12T06:46:31.689Z,22.30
2023-01-12T06:49:16.679Z,19.37
2023-01-12T06:52:00.146Z,17.83
2023-01-12T06:54:43.229Z,23.60
2023-01-12T06:57:26.284Z,19.83
2023-01-12T07:00:13.324Z,18.67
2023-01-12T07:02:56.665Z,19.57
2023-01-12T07:05:39.798Z,20.23
2023-01-12T07:08:23.001Z,19.70
2023-01-12T07:11:08.202Z,20.27
2023-01-12T07:13:51.391Z,19.00
2023-01-12T07:16:35.842Z,22.10
2023-01-12T07:19:18.961Z,19.17
2023-01-12T07:22:02.085Z,18.83
2023-01-12T07:24:45.155Z,21.33
2023-01-12T07:27:28.335Z,23.60
2023-01-12T07:30:13.113Z,23.30
2023-01-12T07:33:06.825Z,20.10
2023-01-12T07:35:49.910Z,17.13
2023-01-12T07:38:35.514Z,19.40
2023-01-12T07:41:36.101Z,21.53
2023-01-12T07:44:20.212Z,20.37
2023-01-12T07:47:03.640Z,21.30
2023-01-12T07:49:48.207Z,16.53
2023-01-12T07:52:32.367Z,22.13
2023-01-12T07:55:17.472Z,21.60
2023-01-12T07:58:03.122Z,18.10
2023-01-12T08:00:46.233Z,15.43
2023-01-12T08:03:29.787Z,19.10
2023-01-12T08:06:14.426Z,17.90
2023-01-12T08:08:57.815Z,16.10
2023-01-12T08:11:40.866Z,18.10
2023-01-12T08:14:33.354Z,16.77
2023-01-12T08:17:21.611Z,19.53
2023-01-12T08:20:16.017Z,19.87
2023-01-12T08:23:05.470Z,21.23
2023-01-12T08:25:56.291Z,19.57
2023-01-12T08:28:45.055Z,15.90
2023-01-12T08:31:28.761Z,16.50
2023-01-12T08:34:12.020Z,16.83
2023-01-12T08:36:56.120Z,16.40
2023-01-12T08:39:41.095Z,15.50
2023-01-12T08:42:28.008Z,18.07
2023-01-12T08:45:12.839Z,15.13
2023-01-12T08:47:56.440Z,15.87
2023-01-12T08:50:39.540Z,18.80
2023-01-12T08:53:22.986Z,17.67
2023-01-12T08:56:08.506Z,18.17
2023-01-12T08:58:51.577Z,17.57
2023-01-12T09:01:35.271Z,15.33
2023-01-12T09:04:18.731Z,14.67
2023-01-12T09:07:02.135Z,15.07
2023-01-12T09:09:46.596Z,16.17
2023-01-12T09:12:32.133Z,17.57
2023-01-12T09:15:17.786Z,12.77
2023-01-12T09:18:01.172Z,13.47
2023-01-12T09:20:44.263Z,14.03
2023-01-12T09:23:27.493Z,12.77
2023-01-12T09:26:12.235Z,14.33
2023-01-12T09:28:58.363Z,14.50
2023-01-12T09:31:43.301Z,10.67
2023-01-12T09:34:26.501Z,11.73
2023-01-12T09:37:09.953Z,22.77
2023-01-12T09:39:53.134Z,12.03
2023-01-12T09:42:53.959Z,12.97
2023-01-12T09:45:56.260Z,12.53
2023-01-12T09:48:39.436Z,15.17
2023-01-12T09:51:32.991Z,13.73
2023-01-12T09:54:16.192Z,12.60
2023-01-12T09:57:10.763Z,12.53
2023-01-12T10:00:03.478Z,12.43
2023-01-12T10:02:51.869Z,13.00
2023-01-12T10:05:41.503Z,19.13
2023-01-12T10:08:32.303Z,15.33
2023-01-12T10:11:21.230Z,13.47
2023-01-12T10:14:24.661Z,14.53
2023-01-12T10:17:19.036Z,13.23
2023-01-12T10:20:17.447Z,10.63
2023-01-12T10:23:11.404Z,13.33
2023-01-12T10:26:03.809Z,11.80
2023-01-12T10:28:48.364Z,14.03
2023-01-12T10:31:31.548Z,12.20
2023-01-12T10:34:15.074Z,12.87
2023-01-12T10:37:10.505Z,13.80
2023-01-12T10:39:54.039Z,13.47
2023-01-12T10:42:55.599Z,13.13
2023-01-12T10:45:38.923Z,15.93
2023-01-12T10:48:23.411Z,17.13
2023-01-12T10:51:08.952Z,15.47
2023-01-12T10:53:58.093Z,13.70
2023-01-12T10:56:44.857Z,13.37
2023-01-12T10:59:31.637Z,15.37
2023-01-12T11:02:17.518Z,14.43
2023-01-12T11:05:00.848Z,10.90
2023-01-12T11:07:50.762Z,20.97
2023-01-12T11:10:37.560Z,12.93
2023-01-12T11:13:27.902Z,12.97
2023-01-12T11:16:20.305Z,11.07
2023-01-12T11:19:18.225Z,14.23
2023-01-12T11:22:08.225Z,11.93
2023-01-12T11:24:57.410Z,12.53
2023-01-12T11:27:47.991Z,18.53
2023-01-12T11:30:38.100Z,14.93
2023-01-12T11:33:26.051Z,16.50
2023-01-12T11:36:13.567Z,12.70
2023-01-12T11:39:03.118Z,12.70
2023-01-12T11:42:04.611Z,12.43
2023-01-12T11:44:56.087Z,12.13
2023-01-12T11:47:42.609Z,12.17
2023-01-12T11:50:29.868Z,10.73
2023-01-12T11:53:21.313Z,11.10
2023-01-12T11:56:19.226Z,11.30
2023-01-12T11:59:10.968Z,11.57
2023-01-12T12:02:05.559Z,12.03
2023-01-12T12:05:00.944Z,11.97
2023-01-12T12:07:59.289Z,11.90
2023-01-12T12:10:49.153Z,11.97
2023-01-12T12:13:37.276Z,11.33
2023-01-12T12:16:30.592Z,13.20
2023-01-12T12:19:33.614Z,10.50
2023-01-12T12:22:30.645Z,13.47
2023-01-12T12:25:25.232Z,11.30
2023-01-12T12:28:37.594Z,14.67
2023-01-12T12:31:46.246Z,12.80
2023-01-12T12:35:00.820Z,11.80
2023-01-12T12:37:52.295Z,14.37
2023-01-12T12:41:00.869Z,11.93
2023-01-12T12:44:01.892Z,12.73
2023-01-12T12:46:55.533Z,15.40
2023-01-12T12:49:39.884Z,13.53
2023-01-12T12:52:26.097Z,11.87
2023-01-12T12:55:13.735Z,11.53
2023-01-12T12:58:00.982Z,12.43
2023-01-12T13:00:46.857Z,12.37
2023-01-12T13:03:51.920Z,12.93
2023-01-12T13:06:36.621Z,11.90
2023-01-12T13:09:42.638Z,11.77
2023-01-12T13:12:36.703Z,12.30
2023-01-12T13:15:32.750Z,11.67
2023-01-12T13:18:43.242Z,12.03
2023-01-12T13:21:32.390Z,11.77
2023-01-12T13:24:30.779Z,11.07
2023-01-12T13:27:56.322Z,12.63
2023-01-12T13:30:51.324Z,12.43
2023-01-12T13:33:35.820Z,14.73
2023-01-12T13:36:32.067Z,13.17
2023-01-12T13:39:16.379Z,12.43
2023-01-12T13:42:17.064Z,14.03
2023-01-12T13:45:03.388Z,13.17
2023-01-12T13:47:48.062Z,18.53
2023-01-12T13:50:34.866Z,13.63
2023-01-12T13:53:25.036Z,13.17
2023-01-12T13:56:09.410Z,14.83
2023-01-12T13:59:01.011Z,11.90
2023-01-12T14:01:47.531Z,12.60
2023-01-12T14:04:54.244Z,12.70
2023-01-12T14:07:54.495Z,13.73
2023-01-12T14:10:43.998Z,14.43
2023-01-12T14:13:43.115Z,13.67
2023-01-12T14:17:04.916Z,14.87
2023-01-12T14:19:52.125Z,11.70
2023-01-12T14:22:35.259Z,12.90
2023-01-12T14:25:22.095Z,15.60
2023-01-12T14:28:05.581Z,12.23
2023-01-12T14:30:52.840Z,12.67
2023-01-12T14:33:41.074Z,13.17
2023-01-12T14:36:30.533Z,16.07
2023-01-12T14:39:20.527Z,14.23
2023-01-12T14:42:22.904Z,13.97
2023-01-12T14:45:40.541Z,12.63
2023-01-12T14:48:26.184Z,13.07
2023-01-12T14:51:21.372Z,15.70
2023-01-12T14:54:19.375Z,15.43
2023-01-12T14:57:07.567Z,16.57
2023-01-12T14:59:51.782Z,16.90
2023-01-12T15:02:39.611Z,14.03
2023-01-12T15:05:25.788Z,17.03
2023-01-12T15:08:26.861Z,14.90
2023-01-12T15:11:12.803Z,18.73
2023-01-12T15:13:58.218Z,17.33
2023-01-12T15:16:58.654Z,17.33
2023-01-12T15:20:02.171Z,19.03
2023-01-12T15:23:02.948Z,18.60
2023-01-12T15:25:46.356Z,21.40
2023-01-12T15:28:31.442Z,23.23
2023-01-12T15:31:20.917Z,18.27
2023-01-12T15:34:05.285Z,19.90
2023-01-12T15:36:48.370Z,22.57
2023-01-12T15:39:31.581Z,19.63
2023-01-12T15:42:20.103Z,20.17
2023-01-12T15:45:04.801Z,20.67
2023-01-12T15:47:49.473Z,19.97
2023-01-12T15:50:33.654Z,21.27
2023-01-12T15:53:19.749Z,20.33
2023-01-12T15:56:02.898Z,23.67
2023-01-12T15:58:45.958Z,23.63
2023-01-12T16:01:36.344Z,26.87
2023-01-12T16:07:26.903Z,23.50
2023-01-12T16:10:11.625Z,26.13
2023-01-12T16:12:55.099Z,27.73
2023-01-12T16:15:38.210Z,23.57
2023-01-12T16:18:23.067Z,25.83
2023-01-12T16:21:06.398Z,26.37
2023-01-12T16:23:50.074Z,22.70
2023-01-12T16:26:33.619Z,23.33
2023-01-12T16:29:17.606Z,22.93
2023-01-12T16:32:01.585Z,22.83
2023-01-12T16:34:46.548Z,25.20
2023-01-12T16:37:33.430Z,23.50
2023-01-12T16:40:17.140Z,23.87
2023-01-12T16:43:00.625Z,20.40
2023-01-12T16:45:43.882Z,23.23
2023-01-12T16:48:27.939Z,20.53
2023-01-12T16:51:14.335Z,21.87
2023-01-12T16:53:59.494Z,24.93
2023-01-12T16:56:43.648Z,21.53
2023-01-12T16:59:28.491Z,22.03
2023-01-12T17:02:14.871Z,20.00
2023-01-12T17:04:58.842Z,19.87
2023-01-12T17:07:43.988Z,22.10
2023-01-12T17:10:27.289Z,26.07
2023-01-12T17:13:10.957Z,21.43
2023-01-12T17:15:54.468Z,21.03
2023-01-12T17:18:38.485Z,19.80
2023-01-12T17:21:22.575Z,18.83
2023-01-12T17:24:08.022Z,16.83
2023-01-12T17:26:52.929Z,19.23
2023-01-12T17:29:36.351Z,19.93
2023-01-12T17:32:19.802Z,18.70
2023-01-12T17:35:04.562Z,20.00
2023-01-12T17:37:47.676Z,17.63
2023-01-12T17:40:32.677Z,20.93
2023-01-12T17:43:15.390Z,22.77
2023-01-12T17:45:58.653Z,18.03
2023-01-12T17:48:42.528Z,19.47
2023-01-12T17:51:25.893Z,17.67
2023-01-12T17:54:12.516Z,18.30
2023-01-12T17:56:57.064Z,18.13
2023-01-12T17:59:40.261Z,19.00
2023-01-12T18:02:23.463Z,18.47
2023-01-12T18:05:07.314Z,18.33
2023-01-12T18:07:50.477Z,21.23
2023-01-12T18:10:33.807Z,20.20
2023-01-12T18:13:18.914Z,16.97
2023-01-12T18:16:02.499Z,17.37
2023-01-12T18:18:46.393Z,19.63
2023-01-12T18:21:30.583Z,17.43
2023-01-12T18:24:13.827Z,21.87
2023-01-12T18:26:57.632Z,16.67
2023-01-12T18:29:42.797Z,16.87
2023-01-12T18:32:27.019Z,15.87
2023-01-12T18:35:10.475Z,17.90
2023-01-12T18:37:53.812Z,19.60
2023-01-12T18:40:37.051Z,16.17
2023-01-12T18:43:19.356Z,19.73
2023-01-12T18:46:08.346Z,19.13
2023-01-12T18:48:51.183Z,18.80
2023-01-12T18:51:52.073Z,25.30
2023-01-12T18:54:36.259Z,19.17
2023-01-12T18:57:21.388Z,19.37
2023-01-12T19:00:15.890Z,16.27
2023-01-12T19:03:01.338Z,17.97
2023-01-12T19:05:55.153Z,18.77
2023-01-12T19:08:56.852Z,18.40
2023-01-12T19:11:42.365Z,18.47
2023-01-12T19:14:43.295Z,22.00
2023-01-12T19:17:30.012Z,17.37
2023-01-12T19:20:16.664Z,15.90
2023-01-12T19:23:17.544Z,17.70
2023-01-12T19:26:19.934Z,16.40
2023-01-12T19:29:03.176Z,17.90
2023-01-12T19:31:46.772Z,16.93
2023-01-12T19:34:31.958Z,17.40
2023-01-12T19:37:17.146Z,15.13
2023-01-12T19:40:03.995Z,18.30
2023-01-12T19:43:07.103Z,14.27
2023-01-12T19:45:52.458Z,14.83
2023-01-12T19:48:36.922Z,13.93
2023-01-12T19:51:21.533Z,13.17
2023-01-12T19:54:06.823Z,12.73
2023-01-12T19:56:50.086Z,12.93
2023-01-12T19:59:33.315Z,15.23
2023-01-12T20:02:16.709Z,13.37
2023-01-12T20:04:59.824Z,14.40
2023-01-12T20:07:43.011Z,15.20
2023-01-12T20:10:28.011Z,13.43
2023-01-12T20:13:15.879Z,13.17
2023-01-12T20:15:59.239Z,15.17
2023-01-12T20:18:43.714Z,12.33
2023-01-12T20:21:26.825Z,13.23
2023-01-12T20:24:09.992Z,11.03
2023-01-12T20:26:55.019Z,11.97
2023-01-12T20:29:38.326Z,11.10
2023-01-12T20:32:21.549Z,11.67
2023-01-12T20:35:05.476Z,12.07
2023-01-12T20:37:49.425Z,11.43
2023-01-12T20:40:36.695Z,12.17
2023-01-12T20:43:23.624Z,12.03
2023-01-12T20:46:09.396Z,11.73
2023-01-12T20:48:52.597Z,14.67
2023-01-12T20:51:35.754Z,11.80
2023-01-12T20:54:18.993Z,12.33
2023-01-12T20:57:02.482Z,12.57
2023-01-12T20:59:47.256Z,15.43
2023-01-12T21:02:30.341Z,13.47
2023-01-12T21:05:13.417Z,13.40
2023-01-12T21:08:07.529Z,12.23
2023-01-12T21:10:52.994Z,13.77
2023-01-12T21:13:36.418Z,15.97
2023-01-12T21:16:22.694Z,13.47
2023-01-12T21:19:05.935Z,12.73
2023-01-12T21:21:49.210Z,15.63
2023-01-12T21:24:32.914Z,13.20
2023-01-12T21:27:16.004Z,11.73
2023-01-12T21:29:59.389Z,22.90
2023-01-12T21:32:43.882Z,14.60
2023-01-12T21:35:26.993Z,13.17
2023-01-12T21:38:10.157Z,16.23
2023-01-12T21:40:53.328Z,13.07
2023-01-12T21:43:36.702Z,12.40
2023-01-12T21:46:20.342Z,13.37
2023-01-12T21:49:06.994Z,12.10
2023-01-12T21:51:50.690Z,13.17
2023-01-12T21:54:33.868Z,12.07
2023-01-12T21:57:16.950Z,12.90
2023-01-12T22:00:00.180Z,11.80
2023-01-12T22:02:43.591Z,15.17
2023-01-12T22:05:28.170Z,15.37
2023-01-12T22:08:11.459Z,14.70
2023-01-12T22:10:54.808Z,14.53
2023-01-12T22:13:38.326Z,13.23
2023-01-12T22:16:21.727Z,12.27
2023-01-12T22:22:06.715Z,12.83
2023-01-12T22:24:49.767Z,12.07
2023-01-12T22:27:33.464Z,11.93
2023-01-12T22:30:19.682Z,12.90
2023-01-12T22:33:02.802Z,12.43
2023-01-12T22:35:47.129Z,12.33
2023-01-12T22:38:32.103Z,13.13
2023-01-12T22:41:16.707Z,12.70
2023-01-12T22:44:01.044Z,13.10
2023-01-12T22:46:44.114Z,14.07
2023-01-12T22:49:27.466Z,12.57
2023-01-12T22:52:10.637Z,14.07
2023-01-12T22:54:56.717Z,13.50
2023-01-12T22:57:39.747Z,14.53
2023-01-12T23:00:23.339Z,14.43
2023-01-12T23:03:09.360Z,13.13
2023-01-12T23:05:56.388Z,13.37
2023-01-12T23:08:39.467Z,12.57
2023-01-12T23:11:26.158Z,12.83
2023-01-12T23:14:09.347Z,13.23
2023-01-12T23:16:53.455Z,12.73
2023-01-12T23:19:36.504Z,12.90
2023-01-12T23:22:19.785Z,13.13
2023-01-12T23:25:03.099Z,12.17
2023-01-12T23:27:47.652Z,13.20
2023-01-12T23:30:31.459Z,13.13
2023-01-12T23:33:14.706Z,14.20
2023-01-12T23:35:58.264Z,13.90
2023-01-12T23:38:41.728Z,14.90
2023-01-12T23:41:26.716Z,14.70
2023-01-12T23:44:11.998Z,14.97
2023-01-12T23:46:56.685Z,16.93
2023-01-12T23:49:39.775Z,15.70
2023-01-12T23:52:22.818Z,17.13
2023-01-12T23:55:07.031Z,14.27
2023-01-12T23:57:50.109Z,15.87
